Time;durP1;ratioP1;P1;durP2;ratioP2;P2;SDS_P1;SDS_P2;PMS_P1;PMS_P2;Temp;Humidity;BMP_temperature;BMP_pressure;BME280_temperature;BME280_humidity;BME280_pressure;Samples;Min_cycle;Max_cycle;Signal;HPM_P1;HPM_P2
2021/06/01 00:01:22;;;;;;;2.95;2.63;;;24.10;32.10;;;;;;5091380;28;20059;-63
2021/06/01 00:03:48;;;;;;;3.00;2.45;;;24.10;32.10;;;;;;5085610;28;20032;-61
2021/06/01 00:06:15;;;;;;;2.40;2.20;;;24.10;32.10;;;;;;5087626;28;20544;-61
2021/06/01 00:08:41;;;;;;;2.70;2.42;;;24.00;32.00;;;;;;5087680;28;20328;-59
2021/06/01 00:11:09;;;;;;;2.42;2.10;;;24.00;32.00;;;;;;5089512;28;20047;-61
2021/06/01 00:13:36;;;;;;;1.95;1.73;;;24.00;32.00;;;;;;5085087;28;20522;-61
2021/06/01 00:16:05;;;;;;;2.35;2.10;;;24.00;32.10;;;;;;5088151;28;20063;-62
2021/06/01 00:18:31;;;;;;;2.30;2.05;;;24.00;32.00;;;;;;5084058;28;20032;-62
2021/06/01 00:20:57;;;;;;;3.08;2.08;;;24.00;32.00;;;;;;5087367;28;20167;-62
2021/06/01 00:23:23;;;;;;;2.13;1.90;;;24.00;32.00;;;;;;5088182;28;20064;-61
2021/06/01 00:25:49;;;;;;;2.30;2.10;;;24.00;32.00;;;;;;5087211;28;20077;-62
2021/06/01 00:28:16;;;;;;;2.97;2.08;;;24.00;32.00;;;;;;5088206;28;20041;-61
2021/06/01 00:30:42;;;;;;;4.10;1.90;;;24.00;32.70;;;;;;5089222;28;20107;-62
2021/06/01 00:33:09;;;;;;;2.25;2.00;;;24.00;32.00;;;;;;5090032;28;20443;-62
2021/06/01 00:35:36;;;;;;;2.60;2.00;;;24.00;32.00;;;;;;5085133;28;20035;-62
2021/06/01 00:38:02;;;;;;;2.00;1.80;;;24.00;32.00;;;;;;5088795;28;20027;-61
2021/06/01 00:40:28;;;;;;;2.53;1.85;;;23.90;32.00;;;;;;5087516;28;20092;-61
2021/06/01 00:42:54;;;;;;;3.40;2.00;;;24.00;32.10;;;;;;5086807;28;20047;-62
2021/06/01 00:45:22;;;;;;;2.55;1.92;;;23.90;32.00;;;;;;5086301;28;20032;-63
2021/06/01 00:47:48;;;;;;;2.10;1.80;;;23.90;32.10;;;;;;5088143;28;20430;-63
2021/06/01 00:50:15;;;;;;;2.63;1.95;;;23.90;32.00;;;;;;5092711;28;20055;-62
2021/06/01 00:52:40;;;;;;;2.13;1.70;;;23.90;32.10;;;;;;5095787;28;20024;-64
2021/06/01 00:55:07;;;;;;;2.03;1.80;;;23.90;32.10;;;;;;5090754;28;20047;-61
2021/06/01 00:57:34;;;;;;;2.83;1.70;;;23.90;32.10;;;;;;5093243;28;20025;-60
2021/06/01 01:00:00;;;;;;;2.40;1.80;;;23.80;32.00;;;;;;5090396;28;20465;-61
2021/06/01 01:02:27;;;;;;;1.73;1.40;;;23.90;32.10;;;;;;5090569;28;20056;-60
2021/06/01 01:04:54;;;;;;;1.67;1.50;;;23.90;32.10;;;;;;5090673;28;20368;-61
2021/06/01 01:07:45;;;;;;;1.40;1.30;;;23.90;32.10;;;;;;5092263;28;20023;-59
2021/06/01 01:10:15;;;;;;;2.35;1.70;;;23.80;32.00;;;;;;5090545;28;20035;-60
2021/06/01 01:12:46;;;;;;;2.20;1.65;;;23.80;32.00;;;;;;5090976;28;20036;-62
2021/06/01 01:15:14;;;;;;;1.83;1.55;;;23.80;32.10;;;;;;5088982;28;20115;-61
2021/06/01 01:17:48;;;;;;;1.40;1.27;;;23.80;32.10;;;;;;5091825;28;20020;-61
2021/06/01 01:20:23;;;;;;;2.13;1.63;;;23.80;32.10;;;;;;5090466;28;20036;-61
2021/06/01 01:22:53;;;;;;;1.50;1.27;;;23.80;32.10;;;;;;5090191;28;20020;-62
2021/06/01 01:25:37;;;;;;;1.60;1.50;;;23.70;32.10;;;;;;5088445;28;20031;-62
2021/06/01 01:28:52;;;;;;;1.45;1.25;;;23.80;32.10;;;;;;5088864;28;20036;-60
2021/06/01 01:31:37;;;;;;;1.52;1.38;;;23.70;32.10;;;;;;5086478;28;20078;-64
2021/06/01 01:34:05;;;;;;;1.40;1.30;;;23.70;32.10;;;;;;5088170;28;20032;-60
2021/06/01 01:36:32;;;;;;;2.00;1.13;;;23.70;32.20;;;;;;5089721;28;20024;-62
2021/06/01 01:38:59;;;;;;;1.67;1.30;;;23.70;32.20;;;;;;5092118;28;20385;-62
2021/06/01 01:41:26;;;;;;;1.90;1.20;;;23.70;32.20;;;;;;5090991;28;20104;-62
2021/06/01 01:43:55;;;;;;;1.70;1.33;;;23.70;32.20;;;;;;5092340;28;20052;-63
2021/06/01 01:49:01;;;;;;;1.55;1.10;;;23.70;32.20;;;;;;5090536;28;20366;-61
2021/06/01 01:51:36;;;;;;;2.17;1.30;;;23.70;32.20;;;;;;5089475;28;20028;-63
2021/06/01 01:54:08;;;;;;;1.30;1.10;;;23.70;32.20;;;;;;5090649;28;20039;-63
2021/06/01 01:56:38;;;;;;;1.75;1.35;;;23.60;32.30;;;;;;5087662;28;20036;-62
2021/06/01 01:59:11;;;;;;;1.77;1.23;;;23.60;32.30;;;;;;5091929;28;20640;-61
2021/06/01 02:01:37;;;;;;;1.38;1.13;;;23.70;32.40;;;;;;5090047;28;20584;-63
2021/06/01 02:04:04;;;;;;;2.03;1.25;;;23.60;32.30;;;;;;5091255;28;20106;-62
2021/06/01 02:06:31;;;;;;;2.90;1.30;;;23.60;32.30;;;;;;5091307;28;20046;-64
2021/06/01 02:08:57;;;;;;;1.60;1.20;;;23.60;32.40;;;;;;5093083;28;20351;-63
2021/06/01 02:11:23;;;;;;;1.20;1.10;;;23.60;32.40;;;;;;5086758;28;20117;-62
2021/06/01 02:13:58;;;;;;;1.33;1.20;;;23.60;32.40;;;;;;5090420;28;20100;-61
2021/06/01 02:16:25;;;;;;;1.52;1.20;;;23.60;32.40;;;;;;5087035;28;20024;-60
2021/06/01 02:18:51;;;;;;;1.65;1.23;;;23.60;32.40;;;;;;5089813;28;20020;-62
2021/06/01 02:21:32;;;;;;;1.50;1.33;;;23.60;32.40;;;;;;5089353;28;20032;-61
2021/06/01 02:24:04;;;;;;;1.52;1.20;;;23.60;32.50;;;;;;5090338;28;20042;-60
2021/06/01 02:26:30;;;;;;;1.13;0.93;;;23.50;32.50;;;;;;5090523;28;20030;-62
2021/06/01 02:29:03;;;;;;;1.50;1.10;;;23.50;32.50;;;;;;5091123;28;20435;-61
2021/06/01 02:31:35;;;;;;;1.40;1.00;;;23.50;32.50;;;;;;5087031;28;20066;-63
2021/06/01 02:34:02;;;;;;;1.23;1.10;;;23.50;32.50;;;;;;5085152;28;20325;-63
2021/06/01 02:36:29;;;;;;;1.42;0.93;;;23.50;32.60;;;;;;5085081;28;20028;-66
2021/06/01 02:38:57;;;;;;;1.10;1.00;;;23.50;32.60;;;;;;5088336;28;20028;-62
2021/06/01 02:41:24;;;;;;;1.55;1.25;;;23.50;32.60;;;;;;5086565;28;20047;-63
2021/06/01 02:43:50;;;;;;;1.30;1.00;;;23.50;32.70;;;;;;5088091;28;20036;-63
2021/06/01 02:46:17;;;;;;;0.98;0.88;;;23.50;32.70;;;;;;5090529;28;21522;-64
2021/06/01 02:48:44;;;;;;;2.03;1.10;;;23.50;32.70;;;;;;5090268;28;20435;-60
2021/06/01 02:51:15;;;;;;;1.38;1.00;;;23.50;32.70;;;;;;5090024;28;20109;-60
2021/06/01 02:53:51;;;;;;;1.95;1.15;;;23.40;32.70;;;;;;5090449;28;20036;-59
2021/06/01 02:56:18;;;;;;;1.45;0.90;;;23.50;32.80;;;;;;5085934;28;20040;-62
2021/06/01 02:58:45;;;;;;;0.88;0.80;;;23.40;32.70;;;;;;5085222;28;20036;-62
2021/06/01 03:01:15;;;;;;;1.40;1.10;;;23.40;32.70;;;;;;5088561;28;20156;-63
2021/06/01 03:03:49;;;;;;;1.27;0.95;;;23.40;32.70;;;;;;5088894;28;20027;-61
2021/06/01 03:06:27;;;;;;;1.15;1.02;;;23.40;32.70;;;;;;5088357;28;20085;-63
2021/06/01 03:08:53;;;;;;;1.25;1.08;;;23.40;32.70;;;;;;5091749;28;20032;-61
2021/06/01 03:11:20;;;;;;;1.10;0.85;;;23.40;32.80;;;;;;5088560;28;20020;-61
2021/06/01 03:13:53;;;;;;;1.45;1.10;;;23.40;32.90;;;;;;5086215;28;20135;-60
2021/06/01 03:16:21;;;;;;;0.93;0.85;;;23.40;32.80;;;;;;5088895;28;20123;-60
2021/06/01 03:18:47;;;;;;;3.47;1.05;;;23.40;32.90;;;;;;5090555;28;20036;-61
2021/06/01 03:21:14;;;;;;;1.13;0.75;;;23.40;32.90;;;;;;5086884;28;20152;-64
2021/06/01 03:23:41;;;;;;;1.42;1.05;;;23.40;32.90;;;;;;5090512;28;20391;-63
2021/06/01 03:26:08;;;;;;;1.35;0.82;;;23.40;33.00;;;;;;5087364;28;20055;-63
2021/06/01 03:28:34;;;;;;;0.70;0.70;;;23.40;33.00;;;;;;5086642;28;20020;-59
2021/06/01 03:31:01;;;;;;;1.27;0.75;;;23.40;33.00;;;;;;5090091;28;20028;-63
2021/06/01 03:33:30;;;;;;;1.42;0.90;;;23.30;33.00;;;;;;5088976;28;20036;-62
2021/06/01 03:35:56;;;;;;;1.05;0.95;;;23.30;33.00;;;;;;5089396;28;20031;-63
2021/06/01 03:38:22;;;;;;;1.40;0.80;;;23.30;33.00;;;;;;5086679;28;20043;-59
2021/06/01 03:40:48;;;;;;;1.00;0.80;;;23.30;33.00;;;;;;5088967;28;20044;-61
2021/06/01 03:43:14;;;;;;;2.10;1.00;;;23.30;33.10;;;;;;5086436;28;20020;-63
2021/06/01 03:45:40;;;;;;;1.08;0.88;;;23.30;33.10;;;;;;5092822;28;20397;-61
2021/06/01 03:48:06;;;;;;;0.80;0.73;;;23.30;33.10;;;;;;5090258;28;20031;-60
2021/06/01 03:50:32;;;;;;;0.88;0.80;;;23.30;33.10;;;;;;5092203;28;20309;-62
2021/06/01 03:52:58;;;;;;;0.70;0.70;;;23.30;33.10;;;;;;5090487;28;20024;-61
2021/06/01 03:55:24;;;;;;;1.42;0.82;;;23.30;33.10;;;;;;5090734;28;20488;-61
2021/06/01 03:57:50;;;;;;;0.75;0.70;;;23.30;33.10;;;;;;5088680;28;20386;-63
2021/06/01 04:00:23;;;;;;;1.17;0.82;;;23.40;33.20;;;;;;5086355;28;20147;-62
2021/06/01 04:02:49;;;;;;;1.20;0.75;;;23.30;33.10;;;;;;5085396;28;20039;-62
2021/06/01 04:05:15;;;;;;;1.08;0.68;;;23.30;33.10;;;;;;5088445;28;20466;-63
2021/06/01 04:07:41;;;;;;;0.70;0.68;;;23.40;33.20;;;;;;5089220;28;20081;-63
2021/06/01 04:10:07;;;;;;;0.80;0.60;;;23.30;33.20;;;;;;5092512;28;20031;-63
2021/06/01 04:12:34;;;;;;;1.05;0.82;;;23.30;33.20;;;;;;5086737;28;20034;-62
2021/06/01 04:15:00;;;;;;;1.30;0.80;;;23.30;33.20;;;;;;5084937;28;20020;-62
2021/06/01 04:17:26;;;;;;;1.23;0.63;;;23.40;33.20;;;;;;5087630;28;20038;-60
2021/06/01 04:19:52;;;;;;;0.90;0.70;;;23.40;33.30;;;;;;5088715;28;20142;-60
2021/06/01 04:22:18;;;;;;;0.90;0.80;;;23.30;33.20;;;;;;5087054;28;20028;-63
2021/06/01 04:24:43;;;;;;;1.73;0.85;;;23.40;33.20;;;;;;5086759;28;20093;-62
2021/06/01 04:27:09;;;;;;;1.00;0.88;;;23.40;33.20;;;;;;5086988;28;20712;-63
2021/06/01 04:29:35;;;;;;;0.80;0.70;;;23.40;33.20;;;;;;5085564;28;20040;-63
2021/06/01 04:32:02;;;;;;;1.15;0.80;;;23.30;33.20;;;;;;5088555;28;20128;-61
2021/06/01 04:34:27;;;;;;;0.75;0.68;;;23.30;33.20;;;;;;5085244;28;20039;-62
2021/06/01 04:36:53;;;;;;;1.00;0.70;;;23.40;33.20;;;;;;5088633;28;20028;-61
2021/06/01 04:39:19;;;;;;;0.88;0.73;;;23.40;33.20;;;;;;5088942;28;20028;-63
2021/06/01 04:41:45;;;;;;;1.50;0.70;;;23.40;33.20;;;;;;5086559;28;20458;-62
2021/06/01 04:44:11;;;;;;;3.90;1.00;;;23.40;33.30;;;;;;5083118;28;20043;-60
2021/06/01 04:46:37;;;;;;;0.90;0.60;;;23.40;33.30;;;;;;5090882;28;20463;-62
2021/06/01 04:49:02;;;;;;;2.10;0.70;;;23.40;33.30;;;;;;5087462;28;20024;-62
2021/06/01 04:51:28;;;;;;;1.10;0.70;;;23.40;33.30;;;;;;5091843;28;20382;-63
2021/06/01 04:53:57;;;;;;;1.48;0.80;;;23.40;33.30;;;;;;5089369;28;20028;-63
2021/06/01 04:56:24;;;;;;;1.85;0.85;;;23.40;33.30;;;;;;5087486;28;20031;-60
2021/06/01 04:58:50;;;;;;;0.90;0.70;;;23.40;33.30;;;;;;5081980;28;20021;-62
2021/06/01 05:01:16;;;;;;;2.28;1.00;;;23.40;33.40;;;;;;5088172;28;20363;-60
2021/06/01 05:03:42;;;;;;;0.90;0.60;;;23.40;33.40;;;;;;5088744;28;20020;-63
2021/06/01 05:06:09;;;;;;;1.10;0.70;;;23.40;33.40;;;;;;5088518;28;20415;-63
2021/06/01 05:08:35;;;;;;;1.05;0.68;;;23.40;33.40;;;;;;5091433;28;20031;-62
2021/06/01 05:11:02;;;;;;;0.75;0.70;;;23.40;33.40;;;;;;5083954;28;20036;-63
2021/06/01 05:13:28;;;;;;;0.73;0.60;;;23.40;33.40;;;;;;5086392;28;20439;-61
2021/06/01 05:15:54;;;;;;;0.70;0.70;;;23.40;33.40;;;;;;5085645;28;20058;-63
2021/06/01 05:18:20;;;;;;;1.00;0.70;;;23.40;33.40;;;;;;5085712;28;20492;-62
2021/06/01 05:20:46;;;;;;;0.95;0.85;;;23.40;33.40;;;;;;5069515;28;20044;-61
2021/06/01 05:23:14;;;;;;;1.00;0.85;;;23.40;33.40;;;;;;5089670;28;20074;-60
2021/06/01 05:25:40;;;;;;;0.85;0.63;;;23.40;33.40;;;;;;5087346;28;20089;-63
2021/06/01 05:28:06;;;;;;;1.73;0.80;;;23.40;33.40;;;;;;5087632;28;20030;-62
2021/06/01 05:30:42;;;;;;;1.00;0.85;;;23.40;33.40;;;;;;5084427;28;20291;-62
2021/06/01 05:33:19;;;;;;;1.65;0.80;;;23.40;33.40;;;;;;5084695;28;20132;-63
2021/06/01 05:35:55;;;;;;;0.82;0.60;;;23.40;33.40;;;;;;5079863;28;20061;-63
2021/06/01 05:38:22;;;;;;;1.20;0.77;;;23.40;33.40;;;;;;5093029;28;20038;-62
2021/06/01 05:40:50;;;;;;;0.73;0.63;;;23.40;33.40;;;;;;5091518;28;20036;-61
2021/06/01 05:43:17;;;;;;;1.20;0.70;;;23.40;33.40;;;;;;5086676;28;20386;-62
2021/06/01 05:45:42;;;;;;;0.65;0.60;;;23.40;33.40;;;;;;5089581;28;20036;-62
2021/06/01 05:48:09;;;;;;;1.52;0.90;;;23.40;33.40;;;;;;5093155;28;20060;-62
2021/06/01 05:50:36;;;;;;;0.93;0.80;;;23.40;33.40;;;;;;5093349;28;20020;-60
2021/06/01 05:53:03;;;;;;;1.80;1.10;;;23.40;33.40;;;;;;5092222;28;20070;-60
2021/06/01 05:55:29;;;;;;;1.00;0.60;;;23.40;33.50;;;;;;5093665;28;20028;-63
2021/06/01 05:57:55;;;;;;;0.80;0.70;;;23.40;33.50;;;;;;5094312;28;20088;-61
2021/06/01 06:00:22;;;;;;;0.73;0.60;;;23.40;33.60;;;;;;5089627;28;20047;-63
2021/06/01 06:02:49;;;;;;;1.50;0.80;;;23.50;33.60;;;;;;5088877;28;20057;-62
2021/06/01 06:05:18;;;;;;;1.75;0.80;;;23.40;33.60;;;;;;5093660;28;20040;-58
2021/06/01 06:07:45;;;;;;;0.85;0.68;;;23.40;33.60;;;;;;5091933;28;20384;-62
2021/06/01 06:10:13;;;;;;;1.38;0.75;;;23.40;33.60;;;;;;5093089;28;20028;-63
2021/06/01 06:12:40;;;;;;;2.55;0.93;;;23.40;33.60;;;;;;5092439;28;20028;-62
2021/06/01 06:15:15;;;;;;;0.55;0.55;;;23.50;33.70;;;;;;5095099;28;20028;-63
2021/06/01 06:17:52;;;;;;;0.63;0.60;;;23.40;33.70;;;;;;5090732;28;20090;-63
2021/06/01 06:20:18;;;;;;;0.85;0.80;;;23.50;33.80;;;;;;5092917;28;20042;-60
2021/06/01 06:22:46;;;;;;;1.73;0.90;;;23.40;33.80;;;;;;5092084;28;20031;-64
2021/06/01 06:25:12;;;;;;;1.20;0.70;;;23.40;33.90;;;;;;5090492;28;20453;-61
2021/06/01 06:27:38;;;;;;;1.10;0.90;;;23.50;33.90;;;;;;5094250;28;20028;-61
2021/06/01 06:30:07;;;;;;;2.42;1.00;;;23.50;33.90;;;;;;5093563;28;20030;-62
2021/06/01 06:32:33;;;;;;;1.08;0.60;;;23.50;33.90;;;;;;5072644;28;20360;-61
2021/06/01 06:34:59;;;;;;;1.35;0.68;;;23.50;33.90;;;;;;5091238;28;20394;-59
2021/06/01 06:37:25;;;;;;;0.90;0.77;;;23.50;34.00;;;;;;5090614;28;20024;-63
2021/06/01 06:39:51;;;;;;;1.83;1.00;;;23.50;34.10;;;;;;5091911;28;20447;-63
2021/06/01 06:42:17;;;;;;;1.05;0.85;;;23.60;34.20;;;;;;5087139;28;20085;-61
2021/06/01 06:44:48;;;;;;;1.42;0.75;;;23.60;34.20;;;;;;5090051;28;20028;-63
2021/06/01 06:49:40;;;;;;;2.17;0.80;;;23.70;34.10;;;;;;5086336;28;20040;-62
2021/06/01 06:52:10;;;;;;;0.93;0.80;;;23.70;34.00;;;;;;5089688;28;20056;-63
2021/06/01 06:54:37;;;;;;;1.42;0.90;;;23.70;34.00;;;;;;5091572;28;20024;-61
2021/06/01 06:57:04;;;;;;;0.63;0.52;;;23.70;34.00;;;;;;5090317;28;20114;-63
2021/06/01 06:59:29;;;;;;;1.00;0.80;;;23.80;34.00;;;;;;5091693;28;20035;-62
2021/06/01 07:01:55;;;;;;;1.65;0.90;;;23.80;34.00;;;;;;5090879;28;20036;-63
2021/06/01 07:04:21;;;;;;;1.05;0.85;;;23.90;34.00;;;;;;5091095;28;20351;-62
2021/06/01 07:06:48;;;;;;;1.52;0.75;;;23.90;34.00;;;;;;5094287;28;20028;-60
2021/06/01 07:09:14;;;;;;;0.70;0.70;;;23.90;34.10;;;;;;5092761;28;20028;-64
2021/06/01 07:11:41;;;;;;;1.48;1.10;;;24.00;34.20;;;;;;5091609;28;20020;-62
2021/06/01 07:14:10;;;;;;;1.05;0.75;;;24.00;34.20;;;;;;5093548;28;20032;-61
2021/06/01 07:16:36;;;;;;;0.90;0.80;;;24.10;34.30;;;;;;5093632;28;20032;-63
2021/06/01 07:19:02;;;;;;;1.25;1.00;;;24.10;34.30;;;;;;5093683;28;20065;-62
2021/06/01 07:21:28;;;;;;;1.10;0.70;;;24.10;34.30;;;;;;5087714;28;20350;-64
2021/06/01 07:23:54;;;;;;;1.15;0.90;;;24.10;34.30;;;;;;5091139;28;20024;-61
2021/06/01 07:26:20;;;;;;;0.98;0.70;;;24.10;34.20;;;;;;5093631;28;20032;-62
2021/06/01 07:28:46;;;;;;;1.27;1.05;;;24.20;34.20;;;;;;5091472;28;20030;-63
2021/06/01 07:31:14;;;;;;;0.80;0.80;;;24.20;34.10;;;;;;5093620;28;20055;-63
2021/06/01 07:33:41;;;;;;;1.05;0.80;;;24.20;34.10;;;;;;5093029;28;20024;-62
2021/06/01 07:36:08;;;;;;;1.65;0.82;;;24.20;34.00;;;;;;5085375;28;20490;-60
2021/06/01 07:38:35;;;;;;;1.38;0.80;;;24.30;34.00;;;;;;5087205;28;20439;-61
2021/06/01 07:41:04;;;;;;;2.00;0.85;;;24.30;34.00;;;;;;5089787;28;20043;-60
2021/06/01 07:43:30;;;;;;;0.73;0.63;;;24.30;33.90;;;;;;5088324;28;20451;-61
2021/06/01 07:45:56;;;;;;;0.55;0.52;;;24.30;33.90;;;;;;5090052;28;20020;-62
2021/06/01 07:48:23;;;;;;;0.80;0.68;;;24.30;34.00;;;;;;5085623;28;20032;-60
2021/06/01 07:50:50;;;;;;;1.65;0.70;;;24.30;34.00;;;;;;5087758;28;20465;-61
2021/06/01 07:53:16;;;;;;;0.88;0.70;;;24.30;34.00;;;;;;5088272;28;20364;-61
2021/06/01 07:55:42;;;;;;;1.33;0.60;;;24.30;34.10;;;;;;5083539;28;20016;-61
2021/06/01 07:58:08;;;;;;;0.80;0.50;;;24.30;34.10;;;;;;5086660;28;20089;-61
2021/06/01 08:00:34;;;;;;;1.27;0.70;;;24.40;34.20;;;;;;5085828;28;20055;-61
2021/06/01 08:03:00;;;;;;;0.70;0.60;;;24.40;34.20;;;;;;5089465;28;20043;-62
2021/06/01 08:05:26;;;;;;;0.98;0.60;;;24.30;34.20;;;;;;5092607;28;20106;-61
2021/06/01 08:07:52;;;;;;;1.10;0.60;;;24.40;34.20;;;;;;5092071;28;20428;-61
2021/06/01 08:10:21;;;;;;;0.95;0.80;;;24.40;34.30;;;;;;5092660;28;20119;-62
2021/06/01 08:12:48;;;;;;;0.68;0.47;;;24.40;34.30;;;;;;5092133;28;20032;-61
2021/06/01 08:15:16;;;;;;;0.73;0.50;;;24.40;34.30;;;;;;5092751;28;20151;-61
2021/06/01 08:17:41;;;;;;;1.58;0.68;;;24.40;34.30;;;;;;5092649;28;20052;-61
2021/06/01 08:22:54;;;;;;;0.57;0.50;;;24.40;34.40;;;;;;5092497;28;20081;-62
2021/06/01 08:25:21;;;;;;;1.00;0.60;;;24.40;34.40;;;;;;5088283;28;20362;-61
2021/06/01 08:27:47;;;;;;;1.08;0.63;;;24.40;34.40;;;;;;5091540;28;20032;-61
2021/06/01 08:30:14;;;;;;;0.70;0.68;;;24.40;34.40;;;;;;5091883;28;20036;-61
2021/06/01 08:32:40;;;;;;;0.60;0.60;;;24.40;34.40;;;;;;5092431;28;20036;-63
2021/06/01 08:35:06;;;;;;;0.90;0.65;;;24.40;34.40;;;;;;5090547;28;20051;-62
2021/06/01 08:37:32;;;;;;;1.45;0.70;;;24.40;34.40;;;;;;5091735;28;20040;-62
2021/06/01 08:39:58;;;;;;;1.10;0.70;;;24.40;34.40;;;;;;5090903;28;20028;-61
2021/06/01 08:42:24;;;;;;;3.00;0.80;;;24.50;34.50;;;;;;5092198;28;20340;-62
2021/06/01 08:44:51;;;;;;;1.05;0.70;;;24.40;34.40;;;;;;5091177;28;20028;-62
2021/06/01 08:47:20;;;;;;;0.68;0.60;;;24.40;34.40;;;;;;5091890;28;20028;-61
2021/06/01 08:49:47;;;;;;;0.80;0.70;;;24.40;34.40;;;;;;5091224;28;20568;-62
2021/06/01 08:52:13;;;;;;;1.20;0.60;;;24.50;34.50;;;;;;5092064;28;20060;-62
2021/06/01 08:54:39;;;;;;;0.80;0.57;;;24.50;34.50;;;;;;5091822;28;20070;-61
2021/06/01 08:57:07;;;;;;;0.88;0.68;;;24.50;34.50;;;;;;5092474;28;20028;-61
2021/06/01 08:59:35;;;;;;;0.93;0.70;;;24.50;34.50;;;;;;5091050;28;20239;-63
2021/06/01 09:02:01;;;;;;;0.80;0.73;;;24.50;34.50;;;;;;5091425;28;20129;-61
2021/06/01 09:04:50;;;;;;;0.60;0.60;;;24.50;34.50;;;;;;5090853;28;20245;-61
2021/06/01 09:07:37;;;;;;;0.85;0.60;;;24.50;34.40;;;;;;5091113;28;20368;-61
2021/06/01 09:21:16;;;;;;;1.23;0.80;;;24.50;34.50;;;;;;5095425;28;20101;-62
2021/06/01 09:23:58;;;;;;;1.00;0.70;;;24.50;34.40;;;;;;5092274;28;20028;-62
2021/06/01 09:27:14;;;;;;;0.95;0.63;;;24.60;34.40;;;;;;5093122;28;20093;-61
2021/06/01 09:29:34;;;;;;;0.60;0.60;;;24.60;34.40;;;;;;5092971;28;20051;-62
2021/06/01 09:32:16;;;;;;;1.05;0.68;;;24.60;34.40;;;;;;5092299;28;20443;-63
2021/06/01 09:34:50;;;;;;;1.48;0.70;;;24.60;34.40;;;;;;5086758;28;20032;-61
2021/06/01 09:37:32;;;;;;;1.23;0.70;;;24.60;34.40;;;;;;5091764;28;20490;-61
2021/06/01 09:40:20;;;;;;;1.80;0.82;;;24.60;34.40;;;;;;5095049;28;20016;-62
2021/06/01 09:42:48;;;;;;;1.23;0.82;;;24.70;34.40;;;;;;5093304;28;20039;-61
2021/06/01 09:45:17;;;;;;;1.65;0.77;;;24.70;34.40;;;;;;5094291;28;20035;-63
2021/06/01 09:47:51;;;;;;;1.30;0.80;;;24.70;34.40;;;;;;5088984;28;20020;-62
2021/06/01 09:50:32;;;;;;;1.98;0.80;;;24.70;34.40;;;;;;5093939;28;20032;-61
2021/06/01 09:53:06;;;;;;;0.88;0.63;;;24.70;34.30;;;;;;5092917;28;20024;-63
2021/06/01 09:55:35;;;;;;;;;;;24.70;34.40;;;;;;5091025;28;20423;-60
2021/06/01 09:58:07;;;;;;;0.70;0.68;;;24.70;34.30;;;;;;5094236;28;19947;-61
2021/06/01 10:00:41;;;;;;;1.20;0.70;;;24.70;34.30;;;;;;5070389;28;20044;-61
2021/06/01 10:03:16;;;;;;;0.93;0.70;;;24.70;34.20;;;;;;5094255;28;20059;-62
2021/06/01 10:05:43;;;;;;;1.38;0.80;;;24.70;34.10;;;;;;5099001;28;20028;-61
2021/06/01 10:08:15;;;;;;;0.70;0.60;;;24.70;34.10;;;;;;5092127;28;20089;-61
2021/06/01 10:10:49;;;;;;;1.10;0.80;;;24.80;34.20;;;;;;5092148;28;20024;-61
2021/06/01 10:13:16;;;;;;;2.00;0.90;;;24.80;34.20;;;;;;5091200;28;20079;-63
2021/06/01 10:15:42;;;;;;;1.38;0.70;;;24.80;34.20;;;;;;5086562;28;20032;-64
2021/06/01 10:18:10;;;;;;;1.08;0.63;;;24.80;34.10;;;;;;5093107;28;20525;-62
2021/06/01 10:20:38;;;;;;;1.08;0.80;;;24.80;34.00;;;;;;5092863;28;20055;-62
2021/06/01 10:23:06;;;;;;;1.05;0.80;;;24.80;33.90;;;;;;5090547;28;20023;-57
2021/06/01 10:25:32;;;;;;;0.70;0.60;;;24.90;34.00;;;;;;5088748;28;20035;-63
2021/06/01 10:28:01;;;;;;;1.13;0.50;;;24.90;34.10;;;;;;5092980;28;20016;-61
2021/06/01 10:30:29;;;;;;;0.50;0.50;;;24.90;34.20;;;;;;5093716;28;20038;-62
2021/06/01 10:33:01;;;;;;;2.53;0.73;;;24.90;34.10;;;;;;5086869;28;20020;-64
2021/06/01 10:35:33;;;;;;;0.73;0.60;;;25.00;34.00;;;;;;5091113;28;20032;-62
2021/06/01 10:44:19;;;;;;;0.77;0.68;;;25.00;33.70;;;;;;5093645;28;20028;-64
2021/06/01 10:53:07;;;;;;;2.15;0.85;;;25.10;33.60;;;;;;5093700;28;20039;-61
2021/06/01 10:55:58;;;;;;;0.90;0.60;;;25.20;33.70;;;;;;5093348;28;20067;-61
2021/06/01 10:58:41;;;;;;;0.88;0.57;;;25.20;33.60;;;;;;5092094;28;20047;-62
2021/06/01 11:04:32;;;;;;;1.52;0.75;;;25.30;33.50;;;;;;5091982;28;20335;-63
2021/06/01 11:09:33;;;;;;;1.58;0.85;;;25.40;33.70;;;;;;5091860;28;20036;-62
2021/06/01 11:12:18;;;;;;;1.67;0.55;;;25.40;33.70;;;;;;5092511;28;20024;-58
2021/06/01 11:14:45;;;;;;;1.00;0.60;;;25.50;33.80;;;;;;5093751;28;20458;-61
2021/06/01 11:17:11;;;;;;;1.00;0.70;;;25.50;33.70;;;;;;5075893;28;20047;-61
2021/06/01 11:19:55;;;;;;;1.45;0.60;;;25.50;33.60;;;;;;5090450;28;20055;-62
2021/06/01 11:22:35;;;;;;;0.77;0.50;;;25.60;33.60;;;;;;5090761;28;20375;-59
2021/06/01 11:33:41;;;;;;;4.55;0.80;;;25.60;33.30;;;;;;5092185;28;20032;-60
2021/06/01 11:36:11;;;;;;;3.45;1.10;;;25.60;33.30;;;;;;5092030;28;20530;-59
2021/06/01 11:38:48;;;;;;;3.97;0.80;;;25.70;33.40;;;;;;5093227;28;20034;-59
2021/06/01 11:44:18;;;;;;;2.00;0.88;;;25.70;33.30;;;;;;5084209;28;20416;-59
2021/06/01 11:46:53;;;;;;;2.47;0.68;;;25.70;33.20;;;;;;5090033;28;20485;-60
2021/06/01 11:52:04;;;;;;;1.92;0.90;;;25.70;33.10;;;;;;5093904;28;20047;-59
2021/06/01 11:54:30;;;;;;;2.80;0.80;;;25.70;33.00;;;;;;5094331;28;20024;-61
2021/06/01 12:02:36;;;;;;;1.52;0.70;;;25.80;32.80;;;;;;5093827;28;20059;-60
2021/06/01 12:19:03;;;;;;;1.63;0.50;;;25.80;32.30;;;;;;5088053;28;20023;-61
2021/06/01 12:21:50;;;;;;;0.77;0.60;;;25.70;32.20;;;;;;5085969;28;20367;-60
2021/06/01 12:24:22;;;;;;;0.45;0.40;;;25.80;32.30;;;;;;5089529;28;20027;-61
2021/06/01 12:32:31;;;;;;;0.50;0.50;;;25.70;32.00;;;;;;5089921;28;20031;-61
2021/06/01 12:35:35;;;;;;;0.45;0.45;;;25.70;31.90;;;;;;5092083;28;20038;-61
2021/06/01 12:43:38;;;;;;;;;;;25.80;31.90;;;;;;5093096;28;20466;-62
2021/06/01 13:08:55;;;;;;;0.98;0.60;;;25.90;32.10;;;;;;5090800;28;20379;-62
2021/06/01 13:14:30;;;;;;;0.65;0.60;;;26.00;32.00;;;;;;5094313;28;20036;-65
2021/06/01 13:20:08;;;;;;;2.03;0.70;;;26.00;31.90;;;;;;5094771;28;20035;-63
2021/06/01 13:46:28;;;;;;;4.40;3.55;;;26.10;31.70;;;;;;5093320;28;20042;-64
2021/06/01 13:49:15;;;;;;;4.28;3.70;;;26.10;31.60;;;;;;5087989;28;20123;-65
2021/06/01 17:04:51;;;;;;;1.90;1.70;;;26.30;30.50;;;;;;5091341;28;20102;-65
2021/06/01 17:13:05;;;;;;;2.33;1.90;;;26.30;30.50;;;;;;5092259;28;20028;-63
2021/06/01 17:15:31;;;;;;;2.33;2.00;;;26.30;30.50;;;;;;5091877;28;20035;-65
2021/06/01 17:18:10;;;;;;;2.72;2.10;;;26.30;30.50;;;;;;5092742;28;20064;-61
2021/06/01 17:23:28;;;;;;;2.95;2.30;;;26.40;30.50;;;;;;5090634;28;20119;-61
2021/06/01 17:36:58;;;;;;;2.72;2.00;;;26.40;30.40;;;;;;5092072;28;20119;-62
2021/06/01 17:39:25;;;;;;;3.20;2.60;;;26.40;30.30;;;;;;5094215;28;20040;-60
2021/06/01 17:41:56;;;;;;;3.08;2.15;;;26.40;30.40;;;;;;5091145;28;20044;-60
2021/06/01 17:44:26;;;;;;;3.67;2.72;;;26.40;30.30;;;;;;5090516;28;20042;-60
2021/06/01 17:46:57;;;;;;;5.53;2.97;;;26.50;30.40;;;;;;5091930;28;20021;-60
2021/06/01 17:49:26;;;;;;;4.35;3.33;;;26.40;30.30;;;;;;5093915;28;20032;-60
2021/06/01 17:51:56;;;;;;;3.28;2.97;;;26.40;30.30;;;;;;5089422;28;20039;-60
2021/06/01 17:54:24;;;;;;;3.85;2.90;;;26.40;30.30;;;;;;5091506;28;20036;-60
2021/06/01 17:56:50;;;;;;;4.18;3.20;;;26.40;30.20;;;;;;5091883;28;20042;-60
2021/06/01 17:59:18;;;;;;;3.47;3.03;;;26.30;30.10;;;;;;5094053;28;20506;-60
2021/06/01 18:01:45;;;;;;;3.95;2.92;;;26.30;30.10;;;;;;5090402;28;20460;-61
2021/06/01 18:04:14;;;;;;;3.58;2.50;;;26.30;30.00;;;;;;5093428;28;20105;-62
2021/06/01 18:06:47;;;;;;;3.33;2.50;;;26.30;30.00;;;;;;5090830;28;20081;-61
2021/06/01 18:42:31;;;;;;;2.95;2.30;;;26.10;30.00;;;;;;5089076;28;20502;-60
2021/06/01 19:26:14;;;;;;;2.53;2.33;;;25.90;30.40;;;;;;5091883;28;20067;-60
2021/06/01 19:50:39;;;;;;;29.85;25.73;;;25.90;32.00;;;;;;5084487;28;20028;-61
2021/06/01 19:53:07;;;;;;;29.33;26.15;;;25.90;32.10;;;;;;5090603;28;20035;-61
2021/06/01 19:55:33;;;;;;;28.40;25.27;;;25.90;32.20;;;;;;5088950;28;20051;-61
2021/06/01 19:57:58;;;;;;;29.83;26.45;;;25.90;32.20;;;;;;5089306;28;20055;-60
2021/06/01 20:00:25;;;;;;;28.83;25.70;;;25.90;32.30;;;;;;5090857;28;20131;-62
2021/06/01 20:02:51;;;;;;;28.23;24.85;;;25.90;32.30;;;;;;5091742;28;20051;-61
2021/06/01 20:05:19;;;;;;;27.50;24.50;;;25.90;32.30;;;;;;5091374;28;20032;-60
2021/06/01 20:07:45;;;;;;;26.27;23.52;;;25.90;32.40;;;;;;5090568;28;20351;-60
2021/06/01 20:10:15;;;;;;;28.95;24.48;;;25.90;32.40;;;;;;5089151;28;20028;-61
2021/06/01 20:12:41;;;;;;;25.45;22.60;;;25.90;32.40;;;;;;5091720;28;20035;-60
2021/06/01 20:15:10;;;;;;;25.20;22.08;;;25.90;32.40;;;;;;5091694;28;20447;-60
2021/06/01 20:17:43;;;;;;;26.08;22.80;;;25.90;32.40;;;;;;5090664;28;20098;-59
2021/06/01 20:20:14;;;;;;;25.20;21.73;;;25.90;32.40;;;;;;5090259;28;20119;-61